Time;durP1;ratioP1;P1;durP2;ratioP2;P2;SDS_P1;SDS_P2;PMS_P1;PMS_P2;Temp;Humidity;BMP_temperature;BMP_pressure;BME280_temperature;BME280_humidity;BME280_pressure;Samples;Min_cycle;Max_cycle;Signal;HPM_P1;HPM_P2
2021/11/19 00:00:16;;;;;;;23.07;10.90;;;;;;;10.18;55.04;99244.00;8287917;28;20233;-65
2021/11/19 00:04:19;;;;;;;19.57;10.80;;;;;;;10.06;55.52;99239.94;8316806;28;20247;-64
2021/11/19 00:08:27;;;;;;;17.97;10.50;;;;;;;10.24;55.37;99236.06;8319972;28;20259;-65
2021/11/19 00:12:30;;;;;;;17.60;10.27;;;;;;;10.04;55.90;99230.50;8319749;28;20236;-64
2021/11/19 00:16:33;;;;;;;17.47;9.90;;;;;;;10.18;55.42;99223.28;8316581;28;20238;-65
2021/11/19 00:20:36;;;;;;;17.83;11.03;;;;;;;10.08;55.44;99211.44;8306587;28;20237;-65
2021/11/19 00:24:42;;;;;;;17.57;10.10;;;;;;;10.04;55.31;99208.06;8319710;28;20570;-65
2021/11/19 00:28:44;;;;;;;15.67;10.90;;;;;;;10.11;55.42;99220.00;8319494;28;20419;-65
2021/11/19 00:32:48;;;;;;;15.63;10.23;;;;;;;10.06;55.97;99215.81;8319607;28;20243;-65
2021/11/19 00:36:56;;;;;;;20.77;11.00;;;;;;;10.07;55.75;99220.94;8319553;28;20232;-64
2021/11/19 00:41:02;;;;;;;21.13;11.37;;;;;;;10.18;55.70;99223.28;8319289;28;20229;-64
2021/11/19 00:45:06;;;;;;;17.90;10.20;;;;;;;10.20;55.68;99225.84;8309970;28;20419;-65
2021/11/19 00:49:09;;;;;;;19.93;10.53;;;;;;;10.22;55.76;99234.41;8314944;28;20271;-64
2021/11/19 00:53:12;;;;;;;17.10;10.17;;;;;;;10.37;55.58;99237.53;8286095;28;20237;-64
2021/11/19 00:57:18;;;;;;;18.60;10.80;;;;;;;10.11;55.95;99242.41;8286102;28;20238;-65
2021/11/19 01:01:26;;;;;;;15.57;9.67;;;;;;;10.23;55.99;99241.31;8284854;28;20548;-64
2021/11/19 01:05:29;;;;;;;17.03;10.70;;;;;;;10.26;55.89;99243.81;8285691;28;20239;-64
2021/11/19 01:09:34;;;;;;;18.30;11.37;;;;;;;10.09;56.05;99241.59;8285577;28;20242;-64
2021/11/19 01:13:41;;;;;;;18.13;11.70;;;;;;;9.94;56.63;99247.97;8285211;28;20252;-64
2021/11/19 01:17:46;;;;;;;17.67;12.17;;;;;;;10.10;56.06;99266.59;8285277;28;20237;-64
2021/11/19 01:21:53;;;;;;;19.43;11.33;;;;;;;10.25;56.11;99270.59;8285316;28;20239;-64
2021/11/19 01:25:59;;;;;;;16.43;11.77;;;;;;;10.31;56.24;99275.66;8285173;28;20472;-64
2021/11/19 01:30:05;;;;;;;17.30;11.33;;;;;;;10.34;55.67;99284.22;8285247;28;20233;-64
2021/11/19 01:34:08;;;;;;;16.97;11.40;;;;;;;10.37;56.05;99280.72;8284539;28;20244;-64
2021/11/19 01:38:11;;;;;;;16.93;10.83;;;;;;;10.35;56.25;99265.19;8284810;28;20240;-65
2021/11/19 01:42:16;;;;;;;20.20;11.17;;;;;;;10.37;56.58;99273.78;8284486;28;20252;-64
2021/11/19 01:46:23;;;;;;;18.80;10.30;;;;;;;10.40;56.14;99272.88;8286030;28;20500;-65
2021/11/19 01:50:30;;;;;;;18.10;9.77;;;;;;;10.33;56.17;99268.72;8284129;28;20560;-64
2021/11/19 01:54:37;;;;;;;16.10;10.07;;;;;;;10.29;56.49;99261.88;8284529;28;20237;-65
2021/11/19 01:58:44;;;;;;;19.87;9.93;;;;;;;10.28;56.34;99263.63;8284578;28;20241;-65
2021/11/19 02:02:50;;;;;;;18.53;9.57;;;;;;;10.17;56.17;99260.41;8284314;28;20267;-64
2021/11/19 02:06:59;;;;;;;14.43;9.60;;;;;;;10.25;56.57;99257.66;8284112;28;20248;-64
2021/11/19 02:11:13;;;;;;;16.23;9.40;;;;;;;10.15;56.75;99250.09;8283883;28;20429;-64
2021/11/19 02:15:18;;;;;;;19.70;10.30;;;;;;;10.17;57.02;99244.88;8283709;28;20243;-64
2021/11/19 02:19:27;;;;;;;19.07;9.63;;;;;;;10.25;56.53;99237.78;8283553;28;20233;-64
2021/11/19 02:23:43;;;;;;;15.47;8.80;;;;;;;10.11;56.91;99230.34;8283576;28;20234;-64
2021/11/19 02:27:53;;;;;;;18.07;9.23;;;;;;;10.05;57.30;99235.66;8283824;28;20244;-64
2021/11/19 02:31:58;;;;;;;20.17;9.73;;;;;;;10.22;56.89;99237.84;8283594;28;20234;-64
2021/11/19 02:36:07;;;;;;;17.37;9.40;;;;;;;10.10;57.10;99236.41;8283535;28;20240;-65
2021/11/19 02:40:13;;;;;;;22.07;9.93;;;;;;;10.29;56.98;99231.66;8282719;28;20229;-64
2021/11/19 02:44:19;;;;;;;17.23;9.27;;;;;;;10.37;57.04;99234.09;8282867;28;20244;-64
2021/11/19 02:48:24;;;;;;;16.90;9.63;;;;;;;10.27;56.65;99235.19;8283053;28;20256;-64
2021/11/19 02:52:30;;;;;;;16.33;8.63;;;;;;;10.22;57.39;99235.25;8282804;28;20443;-64
2021/11/19 02:56:34;;;;;;;18.87;9.37;;;;;;;10.16;57.00;99232.81;8282625;28;20242;-64
2021/11/19 03:00:41;;;;;;;18.37;9.07;;;;;;;10.30;57.14;99224.72;8282453;28;20427;-65
2021/11/19 03:04:46;;;;;;;15.67;8.77;;;;;;;10.17;57.01;99219.84;8282555;28;20426;-64
2021/11/19 03:08:50;;;;;;;21.90;9.50;;;;;;;10.09;57.33;99226.06;8282223;28;20241;-64
2021/11/19 03:12:54;;;;;;;19.53;9.60;;;;;;;10.19;57.21;99230.16;8282240;28;20241;-64
2021/11/19 03:16:58;;;;;;;21.47;9.67;;;;;;;10.31;56.91;99234.25;8282350;28;20536;-64
2021/11/19 03:21:04;;;;;;;18.43;9.47;;;;;;;10.30;56.66;99236.00;8282463;28;20240;-64
2021/11/19 03:25:11;;;;;;;20.70;9.50;;;;;;;10.30;56.74;99230.81;8287058;28;20229;-64
2021/11/19 03:29:14;;;;;;;15.33;8.87;;;;;;;10.39;56.48;99227.13;8289214;28;20237;-64
2021/11/19 03:33:20;;;;;;;16.87;9.77;;;;;;;10.32;57.21;99215.25;8289138;28;20431;-64
2021/11/19 03:37:23;;;;;;;18.70;9.77;;;;;;;10.04;57.99;99217.56;8289064;28;20435;-64
2021/11/19 03:41:31;;;;;;;20.47;9.50;;;;;;;10.27;57.57;99210.13;8288875;28;20284;-64
2021/11/19 03:45:47;;;;;;;17.30;9.47;;;;;;;10.18;57.32;99218.09;8288921;28;20422;-64
2021/11/19 03:49:51;;;;;;;15.17;8.97;;;;;;;10.25;57.43;99216.25;8288285;28;20241;-65
2021/11/19 03:53:54;;;;;;;18.57;10.23;;;;;;;10.17;57.66;99219.84;8288671;28;20237;-64
2021/11/19 03:57:59;;;;;;;21.03;10.30;;;;;;;10.02;58.43;99217.59;8288369;28;20244;-64
2021/11/19 04:02:02;;;;;;;19.33;10.40;;;;;;;10.28;57.42;99222.19;8288265;28;20244;-64
2021/11/19 04:06:06;;;;;;;20.73;9.77;;;;;;;10.15;57.61;99220.78;8287322;28;20230;-64
2021/11/19 04:10:10;;;;;;;17.93;10.00;;;;;;;10.31;57.59;99219.56;8288007;28;20244;-64
2021/11/19 04:14:14;;;;;;;24.37;10.33;;;;;;;10.20;58.06;99221.50;8287731;28;20574;-64
2021/11/19 04:18:17;;;;;;;19.07;10.27;;;;;;;10.18;58.06;99216.38;8287638;28;20508;-64
2021/11/19 04:22:21;;;;;;;19.97;10.57;;;;;;;10.15;57.97;99220.78;8287394;28;20233;-64
2021/11/19 04:26:26;;;;;;;21.77;11.50;;;;;;;10.03;58.45;99226.22;8287142;28;20229;-64
2021/11/19 04:30:42;;;;;;;18.10;10.70;;;;;;;10.20;57.82;99225.84;8287166;28;20236;-64
2021/11/19 04:34:45;;;;;;;18.73;11.47;;;;;;;10.05;58.74;99230.50;8286796;28;20244;-64
2021/11/19 04:38:48;;;;;;;20.57;11.77;;;;;;;9.97;58.58;99229.78;8286927;28;20419;-64
2021/11/19 04:42:51;;;;;;;21.27;12.13;;;;;;;10.18;58.35;99231.03;8286675;28;20237;-64
2021/11/19 04:46:55;;;;;;;24.13;12.60;;;;;;;10.09;58.72;99226.94;8286370;28;20234;-64
2021/11/19 04:50:58;;;;;;;20.23;12.03;;;;;;;10.20;58.43;99237.03;8286386;28;20256;-64
2021/11/19 04:55:01;;;;;;;22.33;12.23;;;;;;;10.12;59.30;99234.63;8286509;28;20242;-64
2021/11/19 04:59:05;;;;;;;19.57;12.53;;;;;;;10.12;58.85;99238.94;8285796;28;20438;-65
2021/11/19 05:03:10;;;;;;;21.87;13.27;;;;;;;9.93;59.79;99230.75;8285918;28;20238;-67
2021/11/19 05:07:14;;;;;;;21.70;12.37;;;;;;;10.07;59.59;99231.31;8285936;28;20244;-65
2021/11/19 05:11:19;;;;;;;21.33;13.33;;;;;;;9.97;59.89;99238.38;8285911;28;20301;-65
2021/11/19 05:15:22;;;;;;;23.50;13.60;;;;;;;10.11;59.78;99242.41;8285874;28;20243;-64
2021/11/19 05:19:27;;;;;;;22.97;14.60;;;;;;;9.96;60.42;99238.44;8285466;28;20237;-64
2021/11/19 05:23:30;;;;;;;22.20;14.03;;;;;;;10.00;60.46;99247.84;8285544;28;20419;-65
2021/11/19 05:27:33;;;;;;;22.10;14.37;;;;;;;9.97;60.69;99251.31;8285169;28;20240;-64
2021/11/19 05:31:37;;;;;;;27.50;15.17;;;;;;;9.87;61.05;99254.16;8285215;28;20420;-65
2021/11/19 05:35:46;;;;;;;25.03;15.87;;;;;;;9.97;60.97;99256.50;8300365;28;20233;-64
2021/11/19 05:39:49;;;;;;;24.30;16.20;;;;;;;9.95;60.62;99255.69;8298095;28;20527;-64
2021/11/19 05:43:54;;;;;;;23.97;16.53;;;;;;;9.89;61.16;99261.00;8290349;28;20240;-64
2021/11/19 05:47:57;;;;;;;23.40;16.53;;;;;;;10.04;60.89;99262.41;8299925;28;20235;-64
2021/11/19 05:52:03;;;;;;;26.87;18.10;;;;;;;9.71;61.67;99267.41;8290704;28;20233;-65
2021/11/19 05:56:06;;;;;;;25.27;17.13;;;;;;;9.96;61.32;99274.69;8290438;28;20241;-64
2021/11/19 06:00:12;;;;;;;25.83;18.33;;;;;;;9.94;61.16;99273.88;8283986;28;20241;-65
2021/11/19 06:04:16;;;;;;;23.07;17.13;;;;;;;10.17;60.57;99275.94;8296010;28;20236;-65
2021/11/19 06:08:21;;;;;;;27.03;18.53;;;;;;;9.96;61.19;99275.53;8293720;28;20559;-64
2021/11/19 06:12:26;;;;;;;25.43;18.47;;;;;;;10.13;60.84;99272.56;8303037;28;20229;-64
2021/11/19 06:16:32;;;;;;;28.43;18.83;;;;;;;9.97;61.55;99272.03;8296909;28;20233;-64
2021/11/19 06:20:37;;;;;;;28.63;19.33;;;;;;;9.95;61.52;99271.22;8283398;28;20233;-64
2021/11/19 06:24:46;;;;;;;29.87;19.87;;;;;;;9.93;61.39;99282.50;8283271;28;20248;-64
2021/11/19 06:28:52;;;;;;;27.43;18.77;;;;;;;10.03;61.19;99293.50;8283492;28;20292;-64
2021/11/19 06:32:55;;;;;;;28.27;20.10;;;;;;;10.02;61.40;99295.25;8283224;28;20242;-64
2021/11/19 06:36:59;;;;;;;29.10;20.50;;;;;;;10.04;61.15;99296.06;8283030;28;20249;-64
2021/11/19 06:41:08;;;;;;;28.97;19.83;;;;;;;10.01;61.21;99298.69;8282730;28;20311;-64
2021/11/19 06:45:14;;;;;;;28.20;20.30;;;;;;;10.13;61.21;99297.63;8283156;28;20248;-64
2021/11/19 06:49:17;;;;;;;32.07;20.50;;;;;;;10.01;61.46;99297.84;8282982;28;20596;-64
2021/11/19 06:53:22;;;;;;;33.77;20.97;;;;;;;9.83;62.34;99305.13;8282876;28;20284;-64
2021/11/19 06:57:26;;;;;;;32.80;21.43;;;;;;;10.05;61.91;99305.53;8282975;28;20233;-64
2021/11/19 07:01:29;;;;;;;27.23;21.17;;;;;;;10.02;61.74;99303.00;8283287;28;20230;-64
2021/11/19 07:05:32;;;;;;;29.83;22.03;;;;;;;9.97;61.65;99303.09;8282741;28;20296;-64
2021/11/19 07:09:37;;;;;;;29.67;21.00;;;;;;;10.05;61.97;99313.31;8282513;28;20245;-64
2021/11/19 07:13:42;;;;;;;31.10;21.03;;;;;;;10.05;61.66;99308.13;8282297;28;20422;-64
2021/11/19 07:17:45;;;;;;;33.17;23.43;;;;;;;9.94;62.37;99312.69;8282902;28;20239;-64
2021/11/19 07:21:48;;;;;;;30.23;21.67;;;;;;;9.96;62.12;99319.50;8282029;28;20240;-64
2021/11/19 07:25:54;;;;;;;30.93;21.83;;;;;;;10.05;61.98;99315.03;8282076;28;20412;-64
2021/11/19 07:29:59;;;;;;;29.23;21.30;;;;;;;10.09;61.97;99311.47;8282167;28;20237;-64
2021/11/19 07:34:04;;;;;;;28.10;20.30;;;;;;;10.11;62.14;99323.53;8289505;28;20230;-64
2021/11/19 07:38:07;;;;;;;30.67;21.17;;;;;;;10.12;62.43;99324.38;8296796;28;20232;-65
2021/11/19 07:42:10;;;;;;;27.70;20.53;;;;;;;10.15;61.80;99332.09;8297246;28;20232;-64
2021/11/19 07:46:18;;;;;;;27.87;20.80;;;;;;;10.08;62.03;99333.09;8281583;28;20236;-64
2021/11/19 07:50:25;;;;;;;28.77;19.77;;;;;;;10.16;62.52;99324.25;8281690;28;20241;-64
2021/11/19 07:54:28;;;;;;;25.17;18.90;;;;;;;10.43;61.58;99318.56;8308371;28;20234;-64
2021/11/19 09:16:57;;;;;;;18.77;14.50;;;;;;;11.08;59.91;99338.63;7695506;28;20259;-63
2021/11/19 09:26:18;;;;;;;18.73;14.40;;;;;;;10.92;60.74;99343.34;8304130;28;20235;-64
2021/11/19 09:30:26;;;;;;;19.70;14.67;;;;;;;11.19;60.50;99343.56;8293865;28;20233;-63
2021/11/19 09:34:32;;;;;;;18.00;13.50;;;;;;;11.15;60.27;99347.97;8284935;28;20240;-64
2021/11/19 09:38:35;;;;;;;17.40;13.40;;;;;;;11.27;59.89;99346.81;8283198;28;20238;-63
2021/11/19 09:42:43;;;;;;;15.23;12.33;;;;;;;11.18;60.14;99336.69;8284709;28;20233;-64
2021/11/19 09:47:01;;;;;;;16.93;12.60;;;;;;;11.25;59.97;99340.81;8284814;28;20241;-64
2021/11/19 09:51:28;;;;;;;23.67;16.50;;;;;;;11.09;60.66;99350.72;8284358;28;20233;-63
2021/11/19 09:56:02;;;;;;;22.73;16.43;;;;;;;10.89;61.13;99349.47;8284681;28;20540;-64
2021/11/19 10:00:14;;;;;;;21.63;16.57;;;;;;;10.99;61.15;99352.69;8272382;28;20229;-64
2021/11/19 10:05:01;;;;;;;18.20;14.77;;;;;;;11.23;60.72;99329.63;8283933;28;20234;-64
2021/11/19 10:09:15;;;;;;;18.13;13.87;;;;;;;11.24;60.56;99333.94;8268893;28;20345;-64
2021/11/19 10:13:28;;;;;;;18.23;13.27;;;;;;;11.33;60.53;99325.94;8284144;28;20551;-64
2021/11/19 10:17:43;;;;;;;19.13;15.97;;;;;;;11.40;60.09;99321.41;8283688;28;20249;-60
2021/11/19 10:21:51;;;;;;;17.83;13.73;;;;;;;11.24;60.59;99320.97;8282265;28;20237;-59
2021/11/19 10:26:03;;;;;;;19.80;13.90;;;;;;;11.32;60.17;99316.44;8283251;28;20242;-59
2021/11/19 10:30:13;;;;;;;19.70;14.60;;;;;;;11.57;60.15;99313.19;8282681;28;20217;-60
2021/11/19 10:34:21;;;;;;;18.73;13.60;;;;;;;11.55;59.86;99308.03;8283009;28;20237;-60
2021/11/19 10:39:13;;;;;;;16.30;12.67;;;;;;;11.51;60.10;99301.25;8283271;28;20241;-60
2021/11/19 10:43:41;;;;;;;14.60;11.87;;;;;;;11.53;59.51;99295.09;8282972;28;20236;-60
2021/11/19 10:48:25;;;;;;;13.50;11.00;;;;;;;11.33;59.63;99303.44;8286482;28;20241;-60
2021/11/19 10:53:17;;;;;;;13.87;11.17;;;;;;;11.32;59.94;99301.72;8296822;28;20395;-60
2021/11/19 10:58:06;;;;;;;16.23;12.53;;;;;;;12.03;57.73;99311.94;8284638;28;20228;-59
2021/11/19 11:02:35;;;;;;;12.50;10.50;;;;;;;12.12;57.55;99306.47;8250897;28;20230;-60
2021/11/19 11:06:42;;;;;;;12.60;9.97;;;;;;;12.28;57.38;99289.56;8283944;28;20556;-60
2021/11/19 11:10:50;;;;;;;14.33;11.00;;;;;;;12.35;57.40;99294.56;8285518;28;20241;-60
2021/11/19 11:15:22;;;;;;;11.87;9.83;;;;;;;12.17;57.27;99294.22;8282506;28;20253;-59
2021/11/19 11:19:28;;;;;;;13.80;10.30;;;;;;;12.14;57.92;99304.69;8266576;28;20221;-60
2021/11/19 11:23:34;;;;;;;14.27;11.80;;;;;;;11.83;58.80;99300.34;8282124;28;20237;-59
2021/11/19 11:28:03;;;;;;;18.40;12.30;;;;;;;12.00;58.14;99304.25;8300597;28;20573;-60
2021/11/19 11:32:24;;;;;;;17.27;12.87;;;;;;;12.07;58.05;99301.44;8291243;28;20417;-60
2021/11/19 11:36:46;;;;;;;19.83;14.03;;;;;;;11.88;58.48;99295.91;8282444;28;20240;-59
2021/11/19 11:41:01;;;;;;;21.53;15.10;;;;;;;11.87;58.57;99298.53;8285021;28;20230;-60
2021/11/19 11:45:24;;;;;;;20.53;14.30;;;;;;;11.81;58.49;99302.16;8284790;28;20509;-60
2021/11/19 11:49:41;;;;;;;18.30;13.93;;;;;;;11.93;58.60;99291.44;8289005;28;20623;-60
2021/11/19 11:53:55;;;;;;;20.07;14.80;;;;;;;11.82;58.77;99290.00;8287765;28;20543;-59
2021/11/19 11:58:08;;;;;;;18.53;14.97;;;;;;;11.90;58.63;99298.47;8287870;28;20245;-59
2021/11/19 12:02:26;;;;;;;19.13;14.83;;;;;;;11.87;58.43;99290.75;8287628;28;20240;-63
2021/11/19 12:06:33;;;;;;;21.33;17.13;;;;;;;11.65;59.60;99283.56;8287736;28;20430;-63
2021/11/19 12:10:54;;;;;;;20.83;16.57;;;;;;;12.03;59.06;99275.59;8287264;28;20428;-63
2021/11/19 12:15:05;;;;;;;22.67;17.83;;;;;;;12.06;58.82;99272.91;8287567;28;20249;-63
2021/11/19 12:19:13;;;;;;;24.90;19.43;;;;;;;11.93;59.09;99273.25;8287083;28;20229;-63
2021/11/19 12:23:24;;;;;;;23.70;20.07;;;;;;;11.84;59.33;99262.25;8287281;28;20237;-63
2021/11/19 12:27:42;;;;;;;22.67;18.53;;;;;;;11.89;58.91;99263.88;8287192;28;20234;-63
2021/11/19 12:31:51;;;;;;;25.00;19.47;;;;;;;11.63;59.78;99256.81;8286654;28;20240;-64
2021/11/19 12:36:06;;;;;;;23.10;18.50;;;;;;;11.83;58.83;99251.03;8286820;28;20238;-64
2021/11/19 12:40:18;;;;;;;23.00;18.57;;;;;;;12.01;58.78;99243.63;8286438;28;20234;-65
2021/11/19 12:44:53;;;;;;;22.30;17.87;;;;;;;11.87;57.99;99241.41;8291864;28;20235;-64
2021/11/19 12:49:25;;;;;;;25.63;20.10;;;;;;;11.89;58.65;99235.31;8301330;28;20548;-65
2021/11/19 12:53:43;;;;;;;26.17;20.03;;;;;;;11.90;58.60;99231.00;8292722;28;20446;-64
2021/11/19 12:58:01;;;;;;;21.87;19.03;;;;;;;11.99;58.21;99229.84;8292386;28;20244;-64
2021/11/19 13:02:22;;;;;;;23.93;19.67;;;;;;;11.82;58.55;99222.53;8299823;28;20221;-66
2021/11/19 13:06:37;;;;;;;22.70;18.93;;;;;;;12.03;58.25;99237.53;8294752;28;20546;-64
2021/11/19 13:10:49;;;;;;;23.40;19.80;;;;;;;11.87;58.56;99237.06;8286401;28;20241;-64
2021/11/19 13:15:25;;;;;;;22.63;18.23;;;;;;;11.85;58.76;99225.88;8285848;28;20237;-65
2021/11/19 13:19:52;;;;;;;23.97;19.80;;;;;;;11.83;58.85;99227.69;8285361;28;20222;-64
2021/11/19 13:23:56;;;;;;;29.43;20.57;;;;;;;11.85;58.64;99228.47;8285861;28;20606;-64
2021/11/19 13:28:01;;;;;;;23.87;19.47;;;;;;;11.98;58.49;99229.00;8285875;28;20237;-65
2021/11/19 13:32:37;;;;;;;26.87;20.03;;;;;;;11.97;58.06;99229.03;8285119;28;20235;-65
2021/11/19 13:36:42;;;;;;;26.47;20.53;;;;;;;11.96;58.81;99222.16;8284265;28;20226;-64
2021/11/19 13:40:49;;;;;;;23.23;17.90;;;;;;;12.04;58.74;99215.00;8284508;28;20240;-65
2021/11/19 13:45:01;;;;;;;23.10;17.87;;;;;;;11.92;58.68;99213.63;8284840;28;20550;-65
2021/11/19 13:49:30;;;;;;;18.87;15.77;;;;;;;11.67;58.90;99214.31;8284488;28;20236;-65
2021/11/19 13:53:51;;;;;;;21.53;15.70;;;;;;;11.50;60.07;99224.31;8279702;28;20263;-65
2021/11/19 13:57:56;;;;;;;17.20;14.27;;;;;;;11.51;59.54;99213.03;8284550;28;20245;-65
2021/11/19 14:02:06;;;;;;;14.90;13.27;;;;;;;11.56;59.56;99203.38;8284670;28;20540;-65
2021/11/19 14:06:12;;;;;;;17.33;14.13;;;;;;;11.53;59.55;99200.88;8288386;28;20224;-65
2021/11/19 14:10:23;;;;;;;19.13;16.03;;;;;;;11.47;60.23;99201.06;8285380;28;20539;-65
2021/11/19 14:14:34;;;;;;;21.20;17.30;;;;;;;11.64;59.57;99204.00;8304457;28;20300;-65
2021/11/19 14:18:47;;;;;;;27.90;21.47;;;;;;;11.62;59.67;99204.97;8316413;28;20233;-66
2021/11/19 14:22:56;;;;;;;28.40;22.37;;;;;;;11.67;59.53;99208.25;8316265;28;20432;-65
2021/11/19 14:27:19;;;;;;;26.40;21.00;;;;;;;11.53;59.42;99208.66;8316034;28;20240;-65
2021/11/19 14:31:23;;;;;;;30.97;23.10;;;;;;;11.44;60.20;99199.41;8298190;28;20229;-64
2021/11/19 14:35:29;;;;;;;28.97;22.77;;;;;;;11.52;59.88;99201.78;8282086;28;20234;-65
2021/11/19 14:39:34;;;;;;;30.03;22.17;;;;;;;11.50;59.83;99207.00;8281979;28;20540;-65
2021/11/19 14:43:56;;;;;;;26.03;20.73;;;;;;;11.48;59.93;99202.72;8283169;28;20233;-65
2021/11/19 14:48:05;;;;;;;30.97;22.53;;;;;;;11.26;60.75;99194.72;8282862;28;20308;-65
2021/11/19 14:52:32;;;;;;;27.20;20.60;;;;;;;11.36;60.25;99201.34;8282192;28;20232;-67
2021/11/19 14:56:49;;;;;;;28.03;20.23;;;;;;;11.45;60.14;99195.06;8282197;28;20241;-65
2021/11/19 15:00:58;;;;;;;26.70;19.30;;;;;;;11.49;60.13;99196.66;8282856;28;20260;-64
2021/11/19 15:05:12;;;;;;;21.60;18.37;;;;;;;11.33;60.35;99212.66;8282775;28;20238;-64
2021/11/19 15:09:21;;;;;;;21.37;16.40;;;;;;;11.36;60.64;99214.31;8282169;28;20237;-65
2021/11/19 15:13:29;;;;;;;17.80;14.67;;;;;;;11.41;60.25;99215.03;8282249;28;20230;-65
2021/11/19 15:17:41;;;;;;;18.03;13.80;;;;;;;11.50;60.05;99221.72;8281692;28;20284;-65
2021/11/19 15:22:10;;;;;;;19.70;16.23;;;;;;;11.39;60.33;99221.19;8281822;28;20532;-65
2021/11/19 15:26:25;;;;;;;21.00;16.93;;;;;;;11.25;60.95;99224.13;8281820;28;20282;-65
2021/11/19 15:30:49;;;;;;;21.50;17.37;;;;;;;11.28;60.65;99224.91;8281889;28;20239;-65
2021/11/19 15:35:03;;;;;;;20.37;16.67;;;;;;;11.26;60.81;99228.44;8282093;28;20240;-65
2021/11/19 15:39:08;;;;;;;21.27;16.97;;;;;;;11.34;60.91;99223.88;8281523;28;20233;-65
2021/11/19 15:43:15;;;;;;;21.13;16.47;;;;;;;11.29;60.71;99224.00;8281930;28;20240;-65
2021/11/19 15:47:19;;;;;;;18.47;16.03;;;;;;;11.39;60.06;99223.78;8281564;28;20243;-65
2021/11/19 15:51:27;;;;;;;20.63;15.90;;;;;;;11.25;60.41;99232.78;8281822;28;20234;-65
2021/11/19 15:55:46;;;;;;;19.00;16.03;;;;;;;11.43;59.95;99235.75;8281670;28;20230;-65
2021/11/19 15:59:58;;;;;;;18.83;15.80;;;;;;;11.47;59.89;99227.84;8281536;28;20233;-65
2021/11/19 16:04:33;;;;;;;17.53;15.10;;;;;;;11.43;59.32;99221.03;8281662;28;20234;-65
2021/11/19 16:08:42;;;;;;;21.80;17.77;;;;;;;11.50;59.42;99224.31;8280992;28;20238;-64
2021/11/19 16:13:06;;;;;;;20.53;18.33;;;;;;;11.49;59.40;99215.66;8280840;28;20241;-65
2021/11/19 16:17:11;;;;;;;16.17;14.53;;;;;;;11.28;59.65;99217.13;8265428;28;20233;-66
2021/11/19 16:21:16;;;;;;;16.50;14.63;;;;;;;11.25;59.85;99211.16;8281231;28;20233;-66
2021/11/19 16:25:23;;;;;;;20.67;14.47;;;;;;;11.25;59.88;99206.84;8281492;28;20236;-65
2021/11/19 16:29:27;;;;;;;16.07;14.37;;;;;;;11.41;59.58;99204.66;8288956;28;20230;-66
2021/11/19 16:33:31;;;;;;;18.67;15.33;;;;;;;11.35;59.97;99199.66;8286741;28;20236;-65
2021/11/19 16:37:34;;;;;;;19.33;15.67;;;;;;;11.26;59.33;99205.09;8298995;28;20241;-67
2021/11/19 16:41:38;;;;;;;19.40;15.50;;;;;;;11.47;59.31;99198.47;8302250;28;20434;-66
2021/11/19 16:45:43;;;;;;;16.73;14.93;;;;;;;11.35;59.48;99200.50;8304869;28;20528;-65
2021/11/19 16:49:46;;;;;;;19.23;16.57;;;;;;;11.38;59.86;99201.31;8288874;28;20269;-67
2021/11/19 16:53:50;;;;;;;16.83;14.60;;;;;;;11.41;59.89;99204.66;8285795;28;20260;-66
2021/11/19 16:57:55;;;;;;;20.83;17.07;;;;;;;10.96;61.27;99207.59;8285376;28;20260;-67
2021/11/19 17:01:58;;;;;;;18.30;15.70;;;;;;;11.21;60.14;99201.75;8285688;28;20248;-67
2021/11/19 17:06:02;;;;;;;18.33;15.20;;;;;;;11.33;60.02;99210.06;8285804;28;20233;-66
2021/11/19 17:10:06;;;;;;;18.27;15.83;;;;;;;11.34;60.05;99205.72;8285339;28;20230;-67
2021/11/19 17:14:11;;;;;;;20.13;16.17;;;;;;;11.25;59.87;99206.84;8289622;28;20347;-66
2021/11/19 17:18:15;;;;;;;22.83;19.23;;;;;;;11.31;60.30;99206.66;8297798;28;20566;-66
2021/11/19 17:22:18;;;;;;;28.07;23.37;;;;;;;11.41;59.67;99209.84;8317884;28;20539;-66
2021/11/19 17:26:22;;;;;;;22.83;17.87;;;;;;;11.47;59.73;99212.28;8308450;28;20540;-68
2021/11/19 17:30:33;;;;;;;21.70;18.53;;;;;;;11.48;59.18;99203.59;8285302;28;20288;-67
2021/11/19 17:34:36;;;;;;;22.87;19.30;;;;;;;11.49;59.64;99199.25;8284972;28;20540;-67
2021/11/19 17:38:40;;;;;;;18.53;14.57;;;;;;;11.54;59.45;99200.00;8285148;28;20256;-66
2021/11/19 17:42:46;;;;;;;18.03;14.93;;;;;;;11.46;59.83;99197.63;8284193;28;20245;-67
2021/11/19 17:46:52;;;;;;;15.90;14.30;;;;;;;11.43;59.67;99189.06;8285357;28;20244;-67
2021/11/19 17:50:57;;;;;;;17.30;15.40;;;;;;;11.32;60.11;99202.31;8285480;28;20240;-67
2021/11/19 17:55:10;;;;;;;20.60;16.13;;;;;;;11.42;60.15;99197.72;8284339;28;20236;-67
2021/11/19 17:59:15;;;;;;;23.60;19.47;;;;;;;11.43;59.96;99195.09;8284765;28;20252;-67
2021/11/19 18:03:21;;;;;;;19.83;17.57;;;;;;;11.45;60.10;99201.09;8284718;28;20434;-67
2021/11/19 18:07:25;;;;;;;25.20;19.57;;;;;;;11.48;60.00;99201.00;8284695;28;20240;-67
2021/11/19 18:11:35;;;;;;;18.77;16.67;;;;;;;11.49;59.75;99201.84;8283642;28;20234;-67
2021/11/19 18:15:38;;;;;;;17.47;15.17;;;;;;;11.53;60.26;99190.50;8283090;28;20241;-67
2021/11/19 18:19:44;;;;;;;16.70;14.27;;;;;;;11.48;60.19;99195.81;8283740;28;20243;-67
2021/11/19 18:23:48;;;;;;;15.43;13.83;;;;;;;11.41;59.67;99199.47;8283093;28;20237;-67
2021/11/19 18:27:52;;;;;;;15.60;13.90;;;;;;;11.43;60.11;99202.88;8283327;28;20264;-67
2021/11/19 18:31:59;;;;;;;14.40;12.90;;;;;;;11.42;60.20;99205.50;8283321;28;20537;-66
2021/11/19 18:36:05;;;;;;;15.47;13.87;;;;;;;11.45;60.06;99192.47;8283549;28;20236;-67
2021/11/19 18:40:10;;;;;;;16.20;14.50;;;;;;;11.48;60.29;99189.75;8282817;28;20233;-67
2021/11/19 18:44:14;;;;;;;16.73;15.03;;;;;;;11.43;60.44;99195.09;8282975;28;20295;-67
2021/11/19 18:48:19;;;;;;;15.80;14.20;;;;;;;11.45;60.59;99189.88;8292873;28;20239;-67
2021/11/19 18:52:25;;;;;;;18.33;11.60;;;;;;;13.42;61.97;99189.63;8315104;28;20282;-65
2021/11/19 18:56:29;;;;;;;14.73;11.10;;;;;;;13.99;57.09;99197.91;8315224;28;20425;-65
2021/11/19 19:00:37;;;;;;;12.17;10.93;;;;;;;14.13;54.29;99194.75;8314035;28;20225;-65
2021/11/19 19:04:40;;;;;;;15.33;13.73;;;;;;;13.80;53.07;99196.91;8314886;28;20239;-67
2021/11/19 19:08:45;;;;;;;14.67;13.03;;;;;;;12.91;55.72;99195.75;8315114;28;20236;-65
2021/11/19 19:12:48;;;;;;;15.27;13.67;;;;;;;12.55;57.18;99201.25;8286074;28;20237;-65
2021/11/19 19:16:56;;;;;;;14.13;12.73;;;;;;;12.26;57.72;99205.66;8282204;28;20247;-65
2021/11/19 19:21:02;;;;;;;14.63;13.13;;;;;;;12.21;57.78;99209.28;8282401;28;20244;-64
2021/11/19 19:25:10;;;;;;;14.13;12.73;;;;;;;12.16;58.03;99201.63;8282174;28;20407;-65
2021/11/19 19:29:15;;;;;;;17.23;15.43;;;;;;;12.10;58.37;99212.19;8273832;28;20233;-65
2021/11/19 19:33:18;;;;;;;17.33;15.53;;;;;;;12.00;58.60;99200.41;8290144;28;20247;-65
2021/11/19 19:37:28;;;;;;;15.57;13.97;;;;;;;11.95;59.17;99202.28;8293159;28;20221;-66
2021/11/19 19:41:34;;;;;;;13.87;12.47;;;;;;;11.93;58.90;99205.75;8314053;28;20229;-65
2021/11/19 19:45:39;;;;;;;14.57;13.07;;;;;;;11.85;59.30;99209.47;8295582;28;20228;-66
2021/11/19 19:49:42;;;;;;;17.17;13.20;;;;;;;11.85;59.64;99209.47;8281159;28;20310;-65
2021/11/19 19:53:49;;;;;;;15.30;13.80;;;;;;;11.79;60.01;99207.06;8281924;28;20241;-64
2021/11/19 19:57:53;;;;;;;13.97;12.53;;;;;;;11.77;59.29;99214.03;8281857;28;20247;-64
2021/11/19 20:01:56;;;;;;;16.60;14.60;;;;;;;11.81;59.32;99220.84;8284276;28;20256;-64
2021/11/19 20:06:00;;;;;;;13.70;12.30;;;;;;;11.72;59.54;99222.78;8284620;28;20237;-64
2021/11/19 20:10:05;;;;;;;14.33;12.83;;;;;;;11.76;59.53;99228.75;8287538;28;20229;-65
2021/11/19 20:14:09;;;;;;;13.37;12.07;;;;;;;11.76;59.91;99228.75;8287694;28;20241;-65
2021/11/19 20:18:19;;;;;;;13.70;12.30;;;;;;;11.79;59.61;99228.66;8287216;28;20233;-64
2021/11/19 20:22:22;;;;;;;14.83;13.30;;;;;;;11.74;59.43;99226.19;8287619;28;20239;-65
2021/11/19 20:26:27;;;;;;;13.30;11.90;;;;;;;11.74;60.04;99223.59;8287682;28;20421;-64
2021/11/19 20:30:34;;;;;;;12.13;10.93;;;;;;;11.72;60.10;99227.97;8287128;28;20240;-65